PWSweather.com
Personal Weather Stations
Station Observations
EDELWEISS
Edelweiss Mazama, Winthrop, WA 98862

Edelweiss MazamaWinthrop, WA 98862

Lat: 48.55444, Lon: -120.33194

Elevation: 2376

Station Type: Davis Vantage Vue

http://www.methow.us/weather/etown.html

High Low Average
Temperature 58.4°F14.7°C 39.0°F3.9°C 46.0°F7.8°C
Dew Point 43.8°F6.6°C 29.8°F-1.2°C 35.6°F2.0°C
Winds 2.0 mph 3.2 kmh Calm Calm 1.0 mph NE1.6 kmh NE
Wind Gusts 8.0 mph12.9 kmh -- 2.0 mph3.2 kmh
Humidity 97% 36% 71%
Pressure 30.35 in1027.8 mb 30.04 in1017.3 mb -
Precipitation 0.38 in9.7 mm - -
Hour Temp Dew Point Humidity Winds Wind Gusts Pressure Precip Precip Rate Daily Precip Total
12:00 AM 42.9°F6.1°C 38.4°F3.6°C 84% Calm Calm -- 30.06 in1017.9 mb 0.00 in0.0 mm 0.00 in0.0 mm 0.00 in0.0 mm
12:10 AM 42.8°F6.0°C 38.6°F3.7°C 85% Calm Calm -- 30.05 in1017.6 mb 0.00 in0.0 mm 0.00 in0.0 mm 0.00 in0.0 mm
12:20 AM 42.6°F5.9°C 38.7°F3.7°C 86% Calm Calm -- 30.05 in1017.6 mb 0.00 in0.0 mm 0.00 in0.0 mm 0.00 in0.0 mm
12:30 AM 42.3°F5.7°C 38.4°F3.6°C 86% Calm Calm -- 30.05 in1017.6 mb 0.00 in0.0 mm 0.00 in0.0 mm 0.00 in0.0 mm
12:40 AM 42.2°F5.7°C 38.6°F3.7°C 87% Calm Calm -- 30.05 in1017.6 mb 0.00 in0.0 mm 0.00 in0.0 mm 0.00 in0.0 mm
12:50 AM 42.4°F5.8°C 38.5°F3.6°C 86% Calm Calm -- 30.05 in1017.6 mb 0.00 in0.0 mm 0.00 in0.0 mm 0.00 in0.0 mm
01:00 AM 42.4°F5.8°C 38.8°F3.8°C 87% Calm Calm -- 30.06 in1017.9 mb 0.00 in0.0 mm 0.00 in0.0 mm 0.00 in0.0 mm
01:10 AM 42.1°F5.6°C 39.1°F3.9°C 89% Calm Calm -- 30.06 in1017.9 mb 0.01 in0.3 mm 0.06 in1.5 mm 0.01 in0.3 mm
01:20 AM 41.7°F5.4°C 39.0°F3.9°C 90% Calm Calm -- 30.05 in1017.6 mb 0.01 in0.3 mm 0.00 in0.0 mm 0.01 in0.3 mm
01:30 AM 41.5°F5.3°C 39.1°F3.9°C 91% Calm Calm -- 30.05 in1017.6 mb 0.02 in0.5 mm 0.06 in1.5 mm 0.02 in0.5 mm
01:40 AM 41.4°F5.2°C 39.3°F4.1°C 92% Calm Calm -- 30.05 in1017.6 mb 0.03 in0.8 mm 0.06 in1.5 mm 0.03 in0.8 mm
01:50 AM 41.4°F5.2°C 39.5°F4.2°C 93% Calm Calm -- 30.05 in1017.6 mb 0.05 in1.3 mm 0.12 in3.0 mm 0.05 in1.3 mm
02:00 AM 41.4°F5.2°C 39.8°F4.3°C 94% Calm Calm -- 30.05 in1017.6 mb 0.10 in2.5 mm 0.06 in1.5 mm 0.10 in2.5 mm
02:10 AM 41.5°F5.3°C 39.9°F4.4°C 94% Calm Calm -- 30.04 in1017.3 mb 0.11 in2.8 mm 0.06 in1.5 mm 0.12 in3.0 mm
02:20 AM 41.5°F5.3°C 39.9°F4.4°C 94% Calm Calm -- 30.04 in1017.3 mb 0.14 in3.6 mm 0.18 in4.6 mm 0.15 in3.8 mm
02:30 AM 41.4°F5.2°C 40.1°F4.5°C 95% Calm Calm -- 30.04 in1017.3 mb 0.14 in3.6 mm 0.00 in0.0 mm 0.16 in4.1 mm
02:40 AM 41.4°F5.2°C 40.1°F4.5°C 95% Calm Calm 1.0 mph1.6 kmh 30.04 in1017.3 mb 0.15 in3.8 mm 0.06 in1.5 mm 0.18 in4.6 mm
02:50 AM 41.4°F5.2°C 40.1°F4.5°C 95% Calm Calm -- 30.04 in1017.3 mb 0.15 in3.8 mm 0.00 in0.0 mm 0.20 in5.1 mm
03:00 AM 41.3°F5.2°C 40.0°F4.4°C 95% Calm Calm 1.0 mph1.6 kmh 30.04 in1017.3 mb 0.11 in2.8 mm 0.00 in0.0 mm 0.21 in5.3 mm
03:10 AM 41.2°F5.1°C 39.9°F4.4°C 95% Calm Calm -- 30.04 in1017.3 mb 0.10 in2.5 mm 0.00 in0.0 mm 0.22 in5.6 mm
03:20 AM 41.2°F5.1°C 39.9°F4.4°C 95% Calm Calm 1.0 mph1.6 kmh 30.04 in1017.3 mb 0.08 in2.0 mm 0.00 in0.0 mm 0.23 in5.8 mm
03:30 AM 41.1°F5.1°C 39.8°F4.3°C 95% Calm Calm -- 30.04 in1017.3 mb 0.08 in2.0 mm 0.00 in0.0 mm 0.24 in6.1 mm
03:40 AM 41.1°F5.1°C 39.8°F4.3°C 95% Calm Calm -- 30.04 in1017.3 mb 0.06 in1.5 mm 0.00 in0.0 mm 0.25 in6.4 mm
03:50 AM 41.0°F5.0°C 39.7°F4.3°C 95% Calm Calm -- 30.04 in1017.3 mb 0.05 in1.3 mm 0.00 in0.0 mm 0.25 in6.4 mm
04:00 AM 41.0°F5.0°C 39.7°F4.3°C 95% Calm Calm -- 30.05 in1017.6 mb 0.05 in1.3 mm 0.00 in0.0 mm 0.26 in6.6 mm
04:10 AM 40.7°F4.8°C 39.4°F4.1°C 95% Calm Calm -- 30.05 in1017.6 mb 0.06 in1.5 mm 0.06 in1.5 mm 0.28 in7.1 mm
04:20 AM 40.4°F4.7°C 39.1°F3.9°C 95% Calm Calm -- 30.06 in1017.9 mb 0.06 in1.5 mm 0.00 in0.0 mm 0.29 in7.4 mm
04:30 AM 40.1°F4.5°C 38.8°F3.8°C 95% Calm Calm 2.0 mph3.2 kmh 30.05 in1017.6 mb 0.09 in2.3 mm 0.18 in4.6 mm 0.33 in8.4 mm
04:40 AM 39.9°F4.4°C 38.3°F3.5°C 94% 1.0 mph NE1.6 kmh NE 1.0 mph1.6 kmh 30.05 in1017.6 mb 0.10 in2.5 mm 0.06 in1.5 mm 0.35 in8.9 mm
04:50 AM 39.6°F4.2°C 38.3°F3.5°C 95% Calm Calm 1.0 mph1.6 kmh 30.05 in1017.6 mb 0.11 in2.8 mm 0.06 in1.5 mm 0.36 in9.1 mm
05:00 AM 39.5°F4.2°C 38.2°F3.4°C 95% Calm Calm -- 30.05 in1017.6 mb 0.10 in2.5 mm 0.00 in0.0 mm 0.36 in9.1 mm
05:10 AM 39.5°F4.2°C 38.2°F3.4°C 95% Calm Calm -- 30.05 in1017.6 mb 0.09 in2.3 mm 0.00 in0.0 mm 0.37 in9.4 mm
05:20 AM 39.5°F4.2°C 38.2°F3.4°C 95% Calm Calm -- 30.05 in1017.6 mb 0.07 in1.8 mm 0.00 in0.0 mm 0.37 in9.4 mm
05:30 AM 39.5°F4.2°C 38.2°F3.4°C 95% Calm Calm -- 30.05 in1017.6 mb 0.04 in1.0 mm 0.00 in0.0 mm 0.37 in9.4 mm
05:40 AM 39.4°F4.1°C 38.1°F3.4°C 95% Calm Calm -- 30.05 in1017.6 mb 0.03 in0.8 mm 0.00 in0.0 mm 0.38 in9.7 mm
05:50 AM 39.4°F4.1°C 38.1°F3.4°C 95% Calm Calm -- 30.05 in1017.6 mb 0.02 in0.5 mm 0.00 in0.0 mm 0.38 in9.7 mm
06:00 AM 39.3°F4.1°C 38.0°F3.3°C 95% Calm Calm -- 30.05 in1017.6 mb 0.02 in0.5 mm 0.00 in0.0 mm 0.38 in9.7 mm
06:10 AM 39.1°F3.9°C 37.8°F3.2°C 95% Calm Calm -- 30.05 in1017.6 mb 0.01 in0.3 mm 0.00 in0.0 mm 0.38 in9.7 mm
06:20 AM 39.1°F3.9°C 37.8°F3.2°C 95% Calm Calm -- 30.05 in1017.6 mb 0.01 in0.3 mm 0.00 in0.0 mm 0.38 in9.7 mm
06:30 AM 39.0°F3.9°C 38.0°F3.3°C 96% Calm Calm -- 30.05 in1017.6 mb 0.01 in0.3 mm 0.00 in0.0 mm 0.38 in9.7 mm
06:40 AM 39.0°F3.9°C 38.0°F3.3°C 96% Calm Calm -- 30.05 in1017.6 mb 0.00 in0.0 mm 0.00 in0.0 mm 0.38 in9.7 mm
06:50 AM 39.0°F3.9°C 38.0°F3.3°C 96% Calm Calm -- 30.05 in1017.6 mb 0.00 in0.0 mm 0.00 in0.0 mm 0.38 in9.7 mm
07:00 AM 39.0°F3.9°C 38.0°F3.3°C 96% Calm Calm -- 30.06 in1017.9 mb 0.00 in0.0 mm 0.00 in0.0 mm 0.38 in9.7 mm
07:10 AM 39.0°F3.9°C 38.0°F3.3°C 96% Calm Calm -- 30.06 in1017.9 mb 0.00 in0.0 mm 0.00 in0.0 mm 0.38 in9.7 mm
07:20 AM 39.3°F4.1°C 38.3°F3.5°C 96% Calm Calm -- 30.06 in1017.9 mb 0.00 in0.0 mm 0.00 in0.0 mm 0.38 in9.7 mm
07:30 AM 39.7°F4.3°C 38.9°F3.8°C 97% Calm Calm -- 30.06 in1017.9 mb 0.00 in0.0 mm 0.00 in0.0 mm 0.38 in9.7 mm
07:40 AM 39.9°F4.4°C 38.9°F3.8°C 96% Calm Calm -- 30.06 in1017.9 mb 0.00 in0.0 mm 0.00 in0.0 mm 0.38 in9.7 mm
07:50 AM 40.2°F4.6°C 39.2°F4.0°C 96% Calm Calm 1.0 mph1.6 kmh 30.06 in1017.9 mb 0.00 in0.0 mm 0.00 in0.0 mm 0.38 in9.7 mm
08:00 AM 40.7°F4.8°C 39.9°F4.4°C 97% Calm Calm -- 30.07 in1018.3 mb 0.00 in0.0 mm 0.00 in0.0 mm 0.38 in9.7 mm
08:10 AM 41.2°F5.1°C 40.4°F4.7°C 97% Calm Calm -- 30.07 in1018.3 mb 0.00 in0.0 mm 0.00 in0.0 mm 0.38 in9.7 mm
08:20 AM 41.5°F5.3°C 40.7°F4.8°C 97% Calm Calm -- 30.07 in1018.3 mb 0.00 in0.0 mm 0.00 in0.0 mm 0.38 in9.7 mm
08:30 AM 41.6°F5.3°C 40.5°F4.7°C 96% Calm Calm -- 30.08 in1018.6 mb 0.00 in0.0 mm 0.00 in0.0 mm 0.38 in9.7 mm
08:40 AM 41.9°F5.5°C 41.1°F5.1°C 97% Calm Calm -- 30.07 in1018.3 mb 0.00 in0.0 mm 0.00 in0.0 mm 0.38 in9.7 mm
08:50 AM 41.9°F5.5°C 40.8°F4.9°C 96% Calm Calm -- 30.07 in1018.3 mb 0.00 in0.0 mm 0.00 in0.0 mm 0.38 in9.7 mm
09:00 AM 41.5°F5.3°C 40.4°F4.7°C 96% Calm Calm -- 30.08 in1018.6 mb 0.00 in0.0 mm 0.00 in0.0 mm 0.38 in9.7 mm
09:10 AM 42.0°F5.6°C 41.2°F5.1°C 97% Calm Calm -- 30.08 in1018.6 mb 0.00 in0.0 mm 0.00 in0.0 mm 0.38 in9.7 mm
09:20 AM 42.6°F5.9°C 41.8°F5.4°C 97% Calm Calm -- 30.08 in1018.6 mb 0.00 in0.0 mm 0.00 in0.0 mm 0.38 in9.7 mm
09:30 AM 43.3°F6.3°C 42.5°F5.8°C 97% Calm Calm -- 30.08 in1018.6 mb 0.00 in0.0 mm 0.00 in0.0 mm 0.38 in9.7 mm
09:40 AM 44.2°F6.8°C 43.1°F6.2°C 96% Calm Calm 1.0 mph1.6 kmh 30.09 in1019.0 mb 0.00 in0.0 mm 0.00 in0.0 mm 0.38 in9.7 mm
09:50 AM 44.6°F7.0°C 43.0°F6.1°C 94% Calm Calm 2.0 mph3.2 kmh 30.09 in1019.0 mb 0.00 in0.0 mm 0.00 in0.0 mm 0.38 in9.7 mm
10:00 AM 45.1°F7.3°C 42.6°F5.9°C 91% Calm Calm 2.0 mph3.2 kmh 30.10 in1019.3 mb 0.00 in0.0 mm 0.00 in0.0 mm 0.38 in9.7 mm
10:10 AM 45.9°F7.7°C 43.4°F6.3°C 91% 1.0 mph S1.6 kmh S 1.0 mph1.6 kmh 30.10 in1019.3 mb 0.00 in0.0 mm 0.00 in0.0 mm 0.38 in9.7 mm
10:20 AM 46.9°F8.3°C 43.8°F6.6°C 89% Calm Calm 3.0 mph4.8 kmh 30.10 in1019.3 mb 0.00 in0.0 mm 0.00 in0.0 mm 0.38 in9.7 mm
10:30 AM 47.6°F8.7°C 40.7°F4.8°C 77% Calm Calm 4.0 mph6.4 kmh 30.10 in1019.3 mb 0.00 in0.0 mm 0.00 in0.0 mm 0.38 in9.7 mm
10:40 AM 48.0°F8.9°C 39.0°F3.9°C 71% 1.0 mph NW1.6 kmh NW 3.0 mph4.8 kmh 30.10 in1019.3 mb 0.00 in0.0 mm 0.00 in0.0 mm 0.38 in9.7 mm
10:50 AM 48.7°F9.3°C 37.5°F3.1°C 65% Calm Calm 4.0 mph6.4 kmh 30.10 in1019.3 mb 0.00 in0.0 mm 0.00 in0.0 mm 0.38 in9.7 mm
11:00 AM 49.7°F9.8°C 37.6°F3.1°C 63% 1.0 mph NNW1.6 kmh NNW 3.0 mph4.8 kmh 30.10 in1019.3 mb 0.00 in0.0 mm 0.00 in0.0 mm 0.38 in9.7 mm
11:10 AM 50.4°F10.2°C 37.4°F3.0°C 61% 2.0 mph NNE3.2 kmh NNE 6.0 mph9.7 kmh 30.10 in1019.3 mb 0.00 in0.0 mm 0.00 in0.0 mm 0.38 in9.7 mm
11:20 AM 50.9°F10.5°C 35.7°F2.1°C 56% 2.0 mph N3.2 kmh N 4.0 mph6.4 kmh 30.11 in1019.6 mb 0.00 in0.0 mm 0.00 in0.0 mm 0.38 in9.7 mm
11:30 AM 51.4°F10.8°C 35.3°F1.8°C 54% 2.0 mph NNE3.2 kmh NNE 7.0 mph11.3 kmh 30.11 in1019.6 mb 0.00 in0.0 mm 0.00 in0.0 mm 0.38 in9.7 mm
11:40 AM 52.2°F11.2°C 36.5°F2.5°C 55% 2.0 mph NE3.2 kmh NE 4.0 mph6.4 kmh 30.11 in1019.6 mb 0.00 in0.0 mm 0.00 in0.0 mm 0.38 in9.7 mm
11:50 AM 53.4°F11.9°C 35.7°F2.1°C 51% 2.0 mph N3.2 kmh N 5.0 mph8.0 kmh 30.12 in1020.0 mb 0.00 in0.0 mm 0.00 in0.0 mm 0.38 in9.7 mm
12:00 PM 53.6°F12.0°C 34.9°F1.6°C 49% 2.0 mph W3.2 kmh W 6.0 mph9.7 kmh 30.12 in1020.0 mb 0.00 in0.0 mm 0.00 in0.0 mm 0.38 in9.7 mm
12:10 PM 54.2°F12.3°C 36.5°F2.5°C 51% 2.0 mph SW3.2 kmh SW 6.0 mph9.7 kmh 30.12 in1020.0 mb 0.00 in0.0 mm 0.00 in0.0 mm 0.38 in9.7 mm
12:20 PM 54.5°F12.5°C 35.2°F1.8°C 48% 2.0 mph N3.2 kmh N 4.0 mph6.4 kmh 30.12 in1020.0 mb 0.00 in0.0 mm 0.00 in0.0 mm 0.38 in9.7 mm
12:30 PM 54.5°F12.5°C 33.0°F0.6°C 44% 2.0 mph N3.2 kmh N 5.0 mph8.0 kmh 30.13 in1020.3 mb 0.00 in0.0 mm 0.00 in0.0 mm 0.38 in9.7 mm
03:00 PM 58.4°F14.7°C 33.5°F0.8°C 39% 1.0 mph S1.6 kmh S 5.0 mph8.0 kmh 30.15 in1021.0 mb 0.00 in0.0 mm 0.00 in0.0 mm 0.38 in9.7 mm
03:10 PM 58.1°F14.5°C 33.2°F0.7°C 39% 2.0 mph S3.2 kmh S 5.0 mph8.0 kmh 30.15 in1021.0 mb 0.00 in0.0 mm 0.00 in0.0 mm 0.38 in9.7 mm
03:20 PM 58.0°F14.4°C 31.8°F-0.1°C 37% 1.0 mph SSW1.6 kmh SSW 4.0 mph6.4 kmh 30.16 in1021.3 mb 0.00 in0.0 mm 0.00 in0.0 mm 0.38 in9.7 mm
03:30 PM 57.8°F14.3°C 31.7°F-0.2°C 37% 1.0 mph NE1.6 kmh NE 3.0 mph4.8 kmh 30.16 in1021.3 mb 0.00 in0.0 mm 0.00 in0.0 mm 0.38 in9.7 mm
03:40 PM 56.5°F13.6°C 29.8°F-1.2°C 36% 1.0 mph NNW1.6 kmh NNW 6.0 mph9.7 kmh 30.16 in1021.3 mb 0.00 in0.0 mm 0.00 in0.0 mm 0.38 in9.7 mm
03:50 PM 56.5°F13.6°C 30.5°F-0.8°C 37% 2.0 mph N3.2 kmh N 6.0 mph9.7 kmh 30.16 in1021.3 mb 0.00 in0.0 mm 0.00 in0.0 mm 0.38 in9.7 mm
04:00 PM 56.1°F13.4°C 30.2°F-1.0°C 37% 2.0 mph N3.2 kmh N 5.0 mph8.0 kmh 30.16 in1021.3 mb 0.00 in0.0 mm 0.00 in0.0 mm 0.38 in9.7 mm
04:10 PM 55.0°F12.8°C 30.5°F-0.8°C 39% 2.0 mph N3.2 kmh N 4.0 mph6.4 kmh 30.17 in1021.7 mb 0.00 in0.0 mm 0.00 in0.0 mm 0.38 in9.7 mm
04:20 PM 54.6°F12.6°C 30.1°F-1.1°C 39% 2.0 mph N3.2 kmh N 4.0 mph6.4 kmh 30.17 in1021.7 mb 0.00 in0.0 mm 0.00 in0.0 mm 0.38 in9.7 mm
04:30 PM 55.0°F12.8°C 31.7°F-0.2°C 41% 2.0 mph NNE3.2 kmh NNE 7.0 mph11.3 kmh 30.17 in1021.7 mb 0.00 in0.0 mm 0.00 in0.0 mm 0.38 in9.7 mm
04:40 PM 55.5°F13.1°C 32.2°F0.1°C 41% 2.0 mph N3.2 kmh N 5.0 mph8.0 kmh 30.18 in1022.0 mb 0.00 in0.0 mm 0.00 in0.0 mm 0.38 in9.7 mm
04:50 PM 55.1°F12.8°C 31.8°F-0.1°C 41% 1.0 mph SE1.6 kmh SE 5.0 mph8.0 kmh 30.18 in1022.0 mb 0.00 in0.0 mm 0.00 in0.0 mm 0.38 in9.7 mm
05:00 PM 55.4°F13.0°C 32.1°F0.1°C 41% 1.0 mph E1.6 kmh E 4.0 mph6.4 kmh 30.19 in1022.4 mb 0.00 in0.0 mm 0.00 in0.0 mm 0.38 in9.7 mm
05:10 PM 54.9°F12.7°C 31.0°F-0.6°C 40% 1.0 mph N1.6 kmh N 8.0 mph12.9 kmh 30.19 in1022.4 mb 0.00 in0.0 mm 0.00 in0.0 mm 0.38 in9.7 mm
05:20 PM 54.2°F12.3°C 31.6°F-0.2°C 42% 2.0 mph NNE3.2 kmh NNE 5.0 mph8.0 kmh 30.19 in1022.4 mb 0.00 in0.0 mm 0.00 in0.0 mm 0.38 in9.7 mm
05:30 PM 53.8°F12.1°C 31.2°F-0.4°C 42% 2.0 mph N3.2 kmh N 5.0 mph8.0 kmh 30.19 in1022.4 mb 0.00 in0.0 mm 0.00 in0.0 mm 0.38 in9.7 mm
05:40 PM 53.4°F11.9°C 30.9°F-0.6°C 42% 2.0 mph N3.2 kmh N 6.0 mph9.7 kmh 30.20 in1022.7 mb 0.00 in0.0 mm 0.00 in0.0 mm 0.38 in9.7 mm
05:50 PM 53.5°F11.9°C 32.1°F0.1°C 44% 2.0 mph N3.2 kmh N 3.0 mph4.8 kmh 30.20 in1022.7 mb 0.00 in0.0 mm 0.00 in0.0 mm 0.38 in9.7 mm
06:00 PM 53.2°F11.8°C 32.4°F0.2°C 45% 1.0 mph N1.6 kmh N 7.0 mph11.3 kmh 30.20 in1022.7 mb 0.00 in0.0 mm 0.00 in0.0 mm 0.38 in9.7 mm
06:10 PM 52.8°F11.6°C 32.0°F0.0°C 45% 2.0 mph ENE3.2 kmh ENE 5.0 mph8.0 kmh 30.20 in1022.7 mb 0.00 in0.0 mm 0.00 in0.0 mm 0.38 in9.7 mm
06:20 PM 51.8°F11.0°C 31.7°F-0.2°C 46% 1.0 mph NE1.6 kmh NE 3.0 mph4.8 kmh 30.21 in1023.0 mb 0.00 in0.0 mm 0.00 in0.0 mm 0.38 in9.7 mm
06:30 PM 50.9°F10.5°C 31.4°F-0.3°C 47% 1.0 mph E1.6 kmh E 4.0 mph6.4 kmh 30.21 in1023.0 mb 0.00 in0.0 mm 0.00 in0.0 mm 0.38 in9.7 mm
06:40 PM 50.8°F10.4°C 31.3°F-0.4°C 47% 2.0 mph NE3.2 kmh NE 5.0 mph8.0 kmh 30.21 in1023.0 mb 0.00 in0.0 mm 0.00 in0.0 mm 0.38 in9.7 mm
06:50 PM 50.5°F10.3°C 31.5°F-0.3°C 48% 1.0 mph ENE1.6 kmh ENE 3.0 mph4.8 kmh 30.21 in1023.0 mb 0.00 in0.0 mm 0.00 in0.0 mm 0.38 in9.7 mm
07:00 PM 50.1°F10.1°C 31.7°F-0.2°C 49% 2.0 mph NE3.2 kmh NE 3.0 mph4.8 kmh 30.21 in1023.0 mb 0.00 in0.0 mm 0.00 in0.0 mm 0.38 in9.7 mm
07:10 PM 49.9°F9.9°C 31.5°F-0.3°C 49% 2.0 mph N3.2 kmh N 2.0 mph3.2 kmh 30.22 in1023.4 mb 0.00 in0.0 mm 0.00 in0.0 mm 0.38 in9.7 mm
07:20 PM 49.6°F9.8°C 31.2°F-0.4°C 49% 1.0 mph N1.6 kmh N 3.0 mph4.8 kmh 30.23 in1023.7 mb 0.00 in0.0 mm 0.00 in0.0 mm 0.38 in9.7 mm
07:30 PM 49.4°F9.7°C 31.5°F-0.3°C 50% 2.0 mph N3.2 kmh N 4.0 mph6.4 kmh 30.23 in1023.7 mb 0.00 in0.0 mm 0.00 in0.0 mm 0.38 in9.7 mm
07:40 PM 48.8°F9.3°C 31.5°F-0.3°C 51% 1.0 mph NE1.6 kmh NE 3.0 mph4.8 kmh 30.23 in1023.7 mb 0.00 in0.0 mm 0.00 in0.0 mm 0.38 in9.7 mm
07:50 PM 48.7°F9.3°C 31.4°F-0.3°C 51% 1.0 mph N1.6 kmh N 4.0 mph6.4 kmh 30.23 in1023.7 mb 0.00 in0.0 mm 0.00 in0.0 mm 0.38 in9.7 mm
08:00 PM 48.8°F9.3°C 31.0°F-0.6°C 50% 2.0 mph N3.2 kmh N 3.0 mph4.8 kmh 30.24 in1024.0 mb 0.00 in0.0 mm 0.00 in0.0 mm 0.38 in9.7 mm
08:10 PM 48.9°F9.4°C 31.5°F-0.3°C 51% 1.0 mph N1.6 kmh N 3.0 mph4.8 kmh 30.24 in1024.0 mb 0.00 in0.0 mm 0.00 in0.0 mm 0.38 in9.7 mm
08:20 PM 48.5°F9.2°C 31.7°F-0.2°C 52% 1.0 mph N1.6 kmh N 3.0 mph4.8 kmh 30.25 in1024.4 mb 0.00 in0.0 mm 0.00 in0.0 mm 0.38 in9.7 mm
08:30 PM 48.2°F9.0°C 31.4°F-0.3°C 52% Calm Calm 2.0 mph3.2 kmh 30.25 in1024.4 mb 0.00 in0.0 mm 0.00 in0.0 mm 0.38 in9.7 mm
08:40 PM 47.7°F8.7°C 31.4°F-0.3°C 53% Calm Calm 2.0 mph3.2 kmh 30.25 in1024.4 mb 0.00 in0.0 mm 0.00 in0.0 mm 0.38 in9.7 mm
08:50 PM 47.5°F8.6°C 31.7°F-0.2°C 54% 1.0 mph NE1.6 kmh NE 4.0 mph6.4 kmh 30.26 in1024.7 mb 0.00 in0.0 mm 0.00 in0.0 mm 0.38 in9.7 mm
09:00 PM 47.2°F8.4°C 31.8°F-0.1°C 55% 1.0 mph NNE1.6 kmh NNE 3.0 mph4.8 kmh 30.26 in1024.7 mb 0.00 in0.0 mm 0.00 in0.0 mm 0.38 in9.7 mm
09:10 PM 47.3°F8.5°C 31.9°F-0.1°C 55% 1.0 mph ENE1.6 kmh ENE 2.0 mph3.2 kmh 30.27 in1025.1 mb 0.00 in0.0 mm 0.00 in0.0 mm 0.38 in9.7 mm
09:20 PM 47.1°F8.4°C 31.7°F-0.2°C 55% 1.0 mph NNE1.6 kmh NNE 3.0 mph4.8 kmh 30.27 in1025.1 mb 0.00 in0.0 mm 0.00 in0.0 mm 0.38 in9.7 mm
09:30 PM 46.8°F8.2°C 32.4°F0.2°C 57% 1.0 mph E1.6 kmh E 2.0 mph3.2 kmh 30.28 in1025.4 mb 0.00 in0.0 mm 0.00 in0.0 mm 0.38 in9.7 mm
09:40 PM 46.6°F8.1°C 32.2°F0.1°C 57% 1.0 mph E1.6 kmh E 3.0 mph4.8 kmh 30.28 in1025.4 mb 0.00 in0.0 mm 0.00 in0.0 mm 0.38 in9.7 mm
09:50 PM 46.5°F8.1°C 31.6°F-0.2°C 56% 1.0 mph NE1.6 kmh NE 2.0 mph3.2 kmh 30.29 in1025.7 mb 0.00 in0.0 mm 0.00 in0.0 mm 0.38 in9.7 mm
10:00 PM 46.3°F7.9°C 31.9°F-0.1°C 57% 1.0 mph E1.6 kmh E 2.0 mph3.2 kmh 30.29 in1025.7 mb 0.00 in0.0 mm 0.00 in0.0 mm 0.38 in9.7 mm
10:10 PM 45.9°F7.7°C 31.5°F-0.3°C 57% 1.0 mph ESE1.6 kmh ESE 2.0 mph3.2 kmh 30.29 in1025.7 mb 0.00 in0.0 mm 0.00 in0.0 mm 0.38 in9.7 mm
10:20 PM 45.6°F7.6°C 32.1°F0.1°C 59% Calm Calm 2.0 mph3.2 kmh 30.30 in1026.1 mb 0.00 in0.0 mm 0.00 in0.0 mm 0.38 in9.7 mm
10:30 PM 45.5°F7.5°C 31.6°F-0.2°C 58% Calm Calm 1.0 mph1.6 kmh 30.30 in1026.1 mb 0.00 in0.0 mm 0.00 in0.0 mm 0.38 in9.7 mm
10:40 PM 45.2°F7.3°C 31.3°F-0.4°C 58% Calm Calm -- 30.31 in1026.4 mb 0.00 in0.0 mm 0.00 in0.0 mm 0.38 in9.7 mm
10:50 PM 44.8°F7.1°C 31.3°F-0.4°C 59% Calm Calm -- 30.31 in1026.4 mb 0.00 in0.0 mm 0.00 in0.0 mm 0.38 in9.7 mm
11:00 PM 44.5°F6.9°C 31.1°F-0.5°C 59% Calm Calm 3.0 mph4.8 kmh 30.32 in1026.8 mb 0.00 in0.0 mm 0.00 in0.0 mm 0.38 in9.7 mm
11:10 PM 44.3°F6.8°C 31.7°F-0.2°C 61% Calm Calm -- 30.32 in1026.8 mb 0.00 in0.0 mm 0.00 in0.0 mm 0.38 in9.7 mm
11:20 PM 44.0°F6.7°C 31.4°F-0.3°C 61% Calm Calm -- 30.32 in1026.8 mb 0.00 in0.0 mm 0.00 in0.0 mm 0.38 in9.7 mm
11:30 PM 43.6°F6.4°C 31.0°F-0.6°C 61% Calm Calm -- 30.32 in1026.8 mb 0.00 in0.0 mm 0.00 in0.0 mm 0.38 in9.7 mm
11:40 PM 43.2°F6.2°C 31.1°F-0.5°C 62% Calm Calm -- 30.33 in1027.1 mb 0.00 in0.0 mm 0.00 in0.0 mm 0.38 in9.7 mm
11:50 PM 42.7°F5.9°C 31.0°F-0.6°C 63% Calm Calm -- 30.33 in1027.1 mb 0.00 in0.0 mm 0.00 in0.0 mm 0.38 in9.7 mm